createdAt,value
2022-08-28T00:00:59.753Z,1.80
2022-08-28T00:03:26.836Z,2.05
2022-08-28T00:05:53.974Z,2.20
2022-08-28T00:08:21.150Z,1.85
2022-08-28T00:10:48.364Z,2.05
2022-08-28T00:13:18.989Z,2.30
2022-08-28T00:15:50.484Z,2.90
2022-08-28T00:18:18.268Z,2.10
2022-08-28T00:20:46.379Z,2.13
2022-08-28T00:23:14.709Z,1.88
2022-08-28T00:25:41.939Z,1.85
2022-08-28T00:28:11.054Z,1.70
2022-08-28T00:30:53.683Z,2.10
2022-08-28T00:33:27.705Z,2.47
2022-08-28T00:35:55.623Z,2.00
2022-08-28T00:38:25.683Z,2.17
2022-08-28T00:40:55.579Z,1.95
2022-08-28T00:43:44.491Z,2.00
2022-08-28T00:47:06.102Z,1.90
2022-08-28T00:49:47.917Z,2.25
2022-08-28T00:52:16.052Z,1.50
2022-08-28T00:54:50.506Z,1.60
2022-08-28T00:57:34.051Z,1.60
2022-08-28T01:00:01.646Z,1.70
2022-08-28T01:02:28.995Z,1.80
2022-08-28T01:04:56.242Z,2.00
2022-08-28T01:07:23.772Z,1.38
2022-08-28T01:09:54.685Z,1.75
2022-08-28T01:12:26.089Z,1.80
2022-08-28T01:14:59.782Z,1.92
2022-08-28T01:17:31.171Z,2.05
2022-08-28T01:20:05.366Z,1.98
2022-08-28T01:22:38.296Z,1.58
2022-08-28T01:25:13.269Z,1.98
2022-08-28T01:27:46.791Z,1.63
2022-08-28T01:30:17.876Z,2.00
2022-08-28T01:32:49.368Z,1.35
2022-08-28T01:35:21.641Z,1.58
2022-08-28T01:37:48.845Z,1.40
2022-08-28T01:40:22.958Z,1.50
2022-08-28T01:42:50.279Z,2.08
2022-08-28T01:45:20.519Z,1.83
2022-08-28T01:47:48.345Z,1.45
2022-08-28T01:50:20.756Z,1.90
2022-08-28T01:52:47.849Z,1.30
2022-08-28T01:55:15.129Z,1.92
2022-08-28T02:00:17.908Z,1.42
2022-08-28T02:02:44.949Z,1.40
2022-08-28T02:05:12.208Z,1.67
2022-08-28T02:07:39.521Z,1.50
2022-08-28T02:10:08.060Z,1.27
2022-08-28T02:12:35.870Z,1.80
2022-08-28T02:18:53.133Z,1.30
2022-08-28T02:21:20.362Z,1.20
2022-08-28T02:23:47.539Z,1.42
2022-08-28T02:26:14.952Z,1.77
2022-08-28T02:28:42.656Z,1.10
2022-08-28T02:31:11.008Z,1.40
2022-08-28T02:33:40.859Z,1.30
2022-08-28T02:36:10.219Z,1.38
2022-08-28T02:38:38.442Z,1.92
2022-08-28T02:41:07.011Z,1.38
2022-08-28T02:43:34.756Z,1.85
2022-08-28T02:46:02.883Z,1.38
2022-08-28T02:48:31.651Z,1.30
2022-08-28T02:51:04.425Z,1.38
2022-08-28T02:53:32.269Z,1.33
2022-08-28T02:56:00.782Z,1.30
2022-08-28T02:58:27.878Z,1.35
2022-08-28T03:00:58.347Z,1.40
2022-08-28T03:03:27.562Z,1.42
2022-08-28T03:05:55.603Z,1.13
2022-08-28T03:08:27.336Z,0.90
2022-08-28T03:10:55.386Z,2.17
2022-08-28T03:13:27.155Z,1.10
2022-08-28T03:15:55.899Z,1.05
2022-08-28T03:18:25.581Z,1.10
2022-08-28T03:20:55.444Z,1.33
2022-08-28T03:23:28.732Z,1.33
2022-08-28T03:26:00.409Z,1.48
2022-08-28T03:28:31.600Z,1.33
2022-08-28T03:30:58.857Z,1.23
2022-08-28T03:33:27.261Z,1.08
2022-08-28T03:35:55.482Z,1.30
2022-08-28T03:38:22.963Z,1.30
2022-08-28T03:40:52.503Z,1.25
2022-08-28T03:43:22.353Z,1.77
2022-08-28T03:45:58.763Z,1.30
2022-08-28T03:48:28.469Z,2.03
2022-08-28T03:50:55.663Z,1.27
2022-08-28T03:53:24.736Z,1.17
2022-08-28T03:55:53.126Z,1.30
2022-08-28T03:58:20.422Z,1.80
2022-08-28T04:00:47.923Z,1.30
2022-08-28T04:03:15.246Z,1.70
2022-08-28T04:05:44.382Z,1.25
2022-08-28T04:08:16.151Z,1.17
2022-08-28T04:10:44.585Z,2.03
2022-08-28T04:13:13.185Z,1.55
2022-08-28T04:15:41.305Z,1.90
2022-08-28T04:18:09.709Z,1.50
2022-08-28T04:20:37.389Z,1.52
2022-08-28T04:23:09.298Z,1.17
2022-08-28T04:25:40.010Z,1.52
2022-08-28T04:28:07.036Z,1.75
2022-08-28T04:30:34.077Z,1.52
2022-08-28T04:33:01.129Z,1.85
2022-08-28T04:35:28.974Z,2.15
2022-08-28T04:37:58.865Z,2.28
2022-08-28T04:40:26.291Z,1.52
2022-08-28T04:42:53.363Z,1.30
2022-08-28T04:45:20.412Z,1.73
2022-08-28T04:47:47.463Z,1.70
2022-08-28T04:50:14.497Z,1.38
2022-08-28T04:52:43.167Z,1.83
2022-08-28T04:55:10.435Z,1.90
2022-08-28T04:57:37.442Z,2.47
2022-08-28T05:00:06.874Z,1.48
2022-08-28T05:02:34.002Z,2.05
2022-08-28T05:05:01.089Z,1.30
2022-08-28T05:07:28.406Z,1.70
2022-08-28T05:09:55.516Z,1.45
2022-08-28T05:12:22.606Z,2.20
2022-08-28T05:14:50.059Z,1.40
2022-08-28T05:17:17.178Z,2.05
2022-08-28T05:19:44.268Z,2.30
2022-08-28T05:22:11.362Z,1.67
2022-08-28T05:24:40.137Z,1.70
2022-08-28T05:27:08.601Z,2.13
2022-08-28T05:29:35.901Z,1.60
2022-08-28T05:32:03.543Z,2.03
2022-08-28T05:34:31.262Z,2.17
2022-08-28T05:36:58.597Z,2.40
2022-08-28T05:39:25.791Z,1.70
2022-08-28T05:41:52.962Z,2.38
2022-08-28T05:44:20.895Z,2.40
2022-08-28T05:46:48.200Z,1.38
2022-08-28T05:49:18.270Z,1.58
2022-08-28T05:51:46.398Z,2.35
2022-08-28T05:54:14.889Z,2.40
2022-08-28T05:56:43.883Z,2.00
2022-08-28T05:59:12.244Z,2.47
2022-08-28T06:01:42.567Z,2.72
2022-08-28T06:04:17.583Z,2.05
2022-08-28T06:06:45.639Z,2.20
2022-08-28T06:09:17.362Z,2.00
2022-08-28T06:11:46.145Z,2.57
2022-08-28T06:14:19.554Z,2.30
2022-08-28T06:16:53.797Z,1.92
2022-08-28T06:19:23.013Z,1.77
2022-08-28T06:21:53.934Z,2.45
2022-08-28T06:24:20.982Z,2.20
2022-08-28T06:26:48.027Z,3.35
2022-08-28T06:29:18.356Z,3.08
2022-08-28T06:31:52.826Z,2.58
2022-08-28T06:34:20.498Z,3.05
2022-08-28T06:36:53.159Z,3.20
2022-08-28T06:39:21.984Z,2.90
2022-08-28T06:41:49.274Z,3.22
2022-08-28T06:44:19.879Z,2.97
2022-08-28T06:46:52.437Z,2.35
2022-08-28T06:49:20.411Z,2.88
2022-08-28T06:51:47.696Z,3.30
2022-08-28T06:54:21.760Z,2.58
2022-08-28T06:56:52.321Z,2.35
2022-08-28T06:59:19.617Z,2.67
2022-08-28T07:01:46.706Z,2.90
2022-08-28T07:04:14.631Z,2.85
2022-08-28T07:06:46.734Z,3.38
2022-08-28T07:09:14.580Z,2.60
2022-08-28T07:11:46.588Z,2.75
2022-08-28T07:14:13.693Z,3.00
2022-08-28T07:16:41.815Z,3.72
2022-08-28T07:19:11.202Z,2.67
2022-08-28T07:21:41.588Z,2.65
2022-08-28T07:24:11.051Z,2.15
2022-08-28T07:26:41.113Z,3.17
2022-08-28T07:29:09.875Z,3.13
2022-08-28T07:31:43.909Z,2.38
2022-08-28T07:34:13.514Z,2.55
2022-08-28T07:36:41.507Z,2.63
2022-08-28T07:39:09.929Z,2.67
2022-08-28T07:41:40.090Z,2.55
2022-08-28T07:44:31.029Z,2.88
2022-08-28T07:47:01.117Z,2.67
2022-08-28T07:49:28.218Z,2.38
2022-08-28T07:51:55.374Z,3.42
2022-08-28T07:54:23.946Z,2.38
2022-08-28T07:56:52.578Z,3.63
2022-08-28T07:59:20.224Z,2.40
2022-08-28T08:01:51.435Z,2.67
2022-08-28T08:04:20.355Z,3.03
2022-08-28T08:06:48.474Z,2.90
2022-08-28T08:09:18.285Z,2.58
2022-08-28T08:11:46.669Z,2.15
2022-08-28T08:14:15.331Z,2.72
2022-08-28T08:16:44.974Z,2.65
2022-08-28T08:19:22.491Z,2.55
2022-08-28T08:21:53.117Z,2.53
2022-08-28T08:24:26.681Z,3.00
2022-08-28T08:27:00.094Z,2.50
2022-08-28T08:29:35.463Z,2.72
2022-08-28T08:32:06.418Z,2.20
2022-08-28T08:34:36.422Z,2.70
2022-08-28T08:37:05.430Z,2.70
2022-08-28T08:39:34.126Z,2.40
2022-08-28T08:42:03.897Z,2.03
2022-08-28T08:44:40.731Z,2.42
2022-08-28T08:47:38.429Z,2.50
2022-08-28T08:50:10.758Z,3.33
2022-08-28T08:52:50.362Z,3.00
2022-08-28T08:55:52.466Z,2.92
2022-08-28T08:58:31.793Z,2.22
2022-08-28T09:01:17.384Z,2.78
2022-08-28T09:03:55.322Z,2.00
2022-08-28T09:06:44.512Z,2.10
2022-08-28T09:09:18.535Z,2.33
2022-08-28T09:11:57.416Z,2.17
2022-08-28T09:14:44.596Z,2.58
2022-08-28T09:17:16.400Z,2.28
2022-08-28T09:19:43.454Z,2.50
2022-08-28T09:22:10.654Z,2.72
2022-08-28T09:24:40.211Z,2.15
2022-08-28T09:27:23.023Z,2.33
2022-08-28T09:29:59.538Z,1.80
2022-08-28T09:32:41.621Z,2.42
2022-08-28T09:35:16.316Z,2.33
2022-08-28T09:37:44.137Z,2.63
2022-08-28T09:40:20.394Z,1.90
2022-08-28T09:43:28.877Z,1.90
2022-08-28T09:46:09.741Z,2.22
2022-08-28T09:48:38.096Z,2.00
2022-08-28T09:51:10.640Z,1.83
2022-08-28T09:53:54.863Z,2.20
2022-08-28T09:56:29.738Z,2.03
2022-08-28T09:59:01.336Z,1.50
2022-08-28T10:01:46.678Z,1.70
2022-08-28T10:04:53.950Z,2.42
2022-08-28T10:07:48.640Z,2.45
2022-08-28T10:10:34.673Z,1.85
2022-08-28T10:13:20.112Z,2.28
2022-08-28T10:16:20.181Z,1.85
2022-08-28T10:19:04.216Z,2.22
2022-08-28T10:21:34.171Z,1.90
2022-08-28T10:24:26.843Z,1.42
2022-08-28T10:27:19.375Z,1.67
2022-08-28T10:30:11.281Z,1.98
2022-08-28T10:32:43.249Z,2.10
2022-08-28T10:35:17.160Z,1.58
2022-08-28T10:38:08.916Z,1.63
2022-08-28T10:40:46.702Z,1.58
2022-08-28T10:43:19.143Z,1.73
2022-08-28T10:45:49.318Z,1.67
2022-08-28T10:48:25.051Z,2.05
2022-08-28T10:51:00.691Z,1.88
2022-08-28T10:53:54.265Z,1.85
2022-08-28T10:56:25.915Z,1.60
2022-08-28T10:58:58.881Z,2.15
2022-08-28T11:01:30.332Z,1.63
2022-08-28T11:04:00.860Z,1.95
2022-08-28T11:06:42.291Z,1.75
2022-08-28T11:09:27.449Z,1.98
2022-08-28T11:12:01.818Z,1.35
2022-08-28T11:14:39.375Z,1.60
2022-08-28T11:17:33.302Z,1.52
2022-08-28T11:20:24.981Z,1.50
2022-08-28T11:23:12.467Z,1.67
2022-08-28T11:25:49.595Z,2.25
2022-08-28T11:28:39.464Z,1.85
2022-08-28T11:31:06.598Z,1.58
2022-08-28T11:33:52.806Z,1.70
2022-08-28T11:36:19.803Z,1.48
2022-08-28T11:38:56.025Z,1.15
2022-08-28T11:41:36.444Z,1.58
2022-08-28T11:44:09.459Z,1.55
2022-08-28T11:46:48.644Z,1.27
2022-08-28T11:49:27.630Z,2.03
2022-08-28T11:52:23.710Z,0.93
2022-08-28T11:55:03.688Z,1.40
2022-08-28T12:00:46.277Z,1.63
2022-08-28T12:03:34.774Z,1.30
2022-08-28T12:06:03.396Z,1.40
2022-08-28T12:08:46.776Z,1.58
2022-08-28T12:11:41.910Z,1.75
2022-08-28T12:14:27.798Z,2.33
2022-08-28T12:17:00.907Z,1.15
2022-08-28T12:19:35.494Z,1.00
2022-08-28T12:22:15.197Z,1.48
2022-08-28T12:25:06.203Z,1.17
2022-08-28T12:27:38.271Z,1.35
2022-08-28T12:30:05.929Z,1.60
2022-08-28T12:32:46.406Z,1.10
2022-08-28T12:35:18.314Z,0.98
2022-08-28T12:38:09.292Z,1.25
2022-08-28T12:40:53.325Z,1.65
2022-08-28T12:43:29.622Z,1.15
2022-08-28T12:46:04.212Z,1.42
2022-08-28T12:48:46.934Z,1.25
2022-08-28T12:51:20.863Z,1.50
2022-08-28T12:53:57.510Z,1.45
2022-08-28T12:56:26.379Z,0.82
2022-08-28T12:58:53.449Z,1.10
2022-08-28T13:01:20.516Z,1.27
2022-08-28T13:03:52.057Z,1.08
2022-08-28T13:06:26.960Z,1.45
2022-08-28T13:09:03.107Z,0.90
2022-08-28T13:11:37.748Z,1.00
2022-08-28T13:14:08.392Z,1.23
2022-08-28T13:16:44.599Z,1.13
2022-08-28T13:19:27.000Z,1.08
2022-08-28T13:22:00.438Z,1.00
2022-08-28T13:24:43.610Z,1.05
2022-08-28T13:27:17.009Z,1.35
2022-08-28T13:30:19.852Z,0.93
2022-08-28T13:33:04.456Z,0.80
2022-08-28T13:35:33.119Z,0.98
2022-08-28T13:38:04.270Z,1.05
2022-08-28T13:40:56.773Z,1.10
2022-08-28T13:43:27.493Z,1.30
2022-08-28T13:45:54.714Z,1.02
2022-08-28T13:48:25.114Z,1.27
2022-08-28T13:51:01.482Z,0.90
2022-08-28T13:53:31.830Z,1.13
2022-08-28T13:56:00.321Z,1.05
2022-08-28T13:58:28.152Z,1.13
2022-08-28T14:00:55.521Z,0.88
2022-08-28T14:03:41.284Z,1.38
2022-08-28T14:06:17.274Z,1.00
2022-08-28T14:08:46.224Z,0.95
2022-08-28T14:11:15.609Z,1.25
2022-08-28T14:13:47.238Z,1.60
2022-08-28T14:16:24.978Z,1.10
2022-08-28T14:18:52.800Z,0.73
2022-08-28T14:21:20.950Z,2.05
2022-08-28T14:23:47.990Z,1.13
2022-08-28T14:26:15.131Z,0.80
2022-08-28T14:28:42.655Z,1.02
2022-08-28T14:31:14.290Z,0.95
2022-08-28T14:33:45.377Z,0.90
2022-08-28T14:36:21.071Z,1.08
2022-08-28T14:38:50.939Z,1.05
2022-08-28T14:41:22.135Z,1.15
2022-08-28T14:43:49.606Z,0.98
2022-08-28T14:46:23.070Z,0.90
2022-08-28T14:48:50.912Z,0.80
2022-08-28T14:51:18.488Z,1.02
2022-08-28T14:53:45.579Z,1.00
2022-08-28T14:56:12.890Z,0.88
2022-08-28T14:58:40.411Z,1.15
2022-08-28T15:01:07.579Z,0.65
2022-08-28T15:03:35.115Z,1.20
2022-08-28T15:06:04.804Z,0.90
2022-08-28T15:08:32.166Z,1.38
2022-08-28T15:10:59.295Z,0.80
2022-08-28T15:13:26.353Z,1.20
2022-08-28T15:16:05.485Z,0.93
2022-08-28T15:18:43.917Z,1.17
2022-08-28T15:21:22.025Z,1.63
2022-08-28T15:23:51.127Z,1.30
2022-08-28T15:26:20.006Z,1.05
2022-08-28T15:28:47.108Z,1.10
2022-08-28T15:31:15.292Z,1.30
2022-08-28T15:33:45.367Z,1.10
2022-08-28T15:36:13.204Z,1.13
2022-08-28T15:38:59.133Z,0.93
2022-08-28T15:41:26.258Z,0.98
2022-08-28T15:44:02.149Z,1.13
2022-08-28T15:46:33.614Z,1.00
2022-08-28T15:49:07.782Z,1.10
2022-08-28T15:51:36.424Z,1.20
2022-08-28T15:54:04.886Z,1.42
2022-08-28T15:56:31.918Z,0.90
2022-08-28T15:58:58.959Z,1.00
2022-08-28T16:01:26.057Z,1.10
2022-08-28T16:03:53.330Z,0.80
2022-08-28T16:06:21.834Z,0.85
2022-08-28T16:08:49.929Z,0.90
2022-08-28T16:11:19.903Z,1.40
2022-08-28T16:13:47.074Z,1.00
2022-08-28T16:16:14.362Z,0.82
2022-08-28T16:18:42.535Z,0.85
2022-08-28T16:21:10.191Z,0.98
2022-08-28T16:23:37.857Z,0.88
2022-08-28T16:26:06.605Z,1.00
2022-08-28T16:28:34.878Z,1.20
2022-08-28T16:31:07.577Z,1.23
2022-08-28T16:33:46.539Z,1.00
2022-08-28T16:36:16.256Z,1.10
2022-08-28T16:38:46.038Z,1.58
2022-08-28T16:41:21.702Z,0.70
2022-08-28T16:43:50.024Z,0.85
2022-08-28T16:46:23.697Z,0.73
2022-08-28T16:48:52.174Z,1.30
2022-08-28T16:51:20.007Z,1.25
2022-08-28T16:53:47.431Z,0.95
2022-08-28T16:56:17.109Z,0.95
2022-08-28T16:58:44.862Z,1.00
2022-08-28T17:01:13.567Z,1.00
2022-08-28T17:03:41.739Z,0.90
2022-08-28T17:06:13.873Z,0.95
2022-08-28T17:08:41.610Z,0.88
2022-08-28T17:11:08.845Z,1.02
2022-08-28T17:13:36.655Z,1.10
2022-08-28T17:16:04.303Z,0.90
2022-08-28T17:18:31.997Z,0.80
2022-08-28T17:21:17.797Z,1.25
2022-08-28T17:23:46.458Z,0.82
2022-08-28T17:26:15.245Z,1.02
2022-08-28T17:28:43.242Z,1.20
2022-08-28T17:31:11.445Z,1.10
2022-08-28T17:33:40.901Z,0.85
2022-08-28T17:36:12.324Z,1.20
2022-08-28T17:38:48.793Z,1.10
2022-08-28T17:41:15.847Z,1.65
2022-08-28T17:43:42.948Z,2.47
2022-08-28T17:46:10.148Z,1.40
2022-08-28T17:48:38.588Z,0.65
2022-08-28T17:51:06.222Z,1.17
2022-08-28T17:53:33.529Z,1.05
2022-08-28T17:56:04.036Z,1.20
2022-08-28T17:58:35.650Z,0.95
2022-08-28T18:01:06.275Z,0.93
2022-08-28T18:03:33.643Z,1.17
2022-08-28T18:06:10.990Z,0.80
2022-08-28T18:08:39.318Z,1.00
2022-08-28T18:11:07.009Z,1.25
2022-08-28T18:13:34.035Z,0.80
2022-08-28T18:16:01.134Z,1.05
2022-08-28T18:18:36.182Z,1.00
2022-08-28T18:21:04.109Z,0.80
2022-08-28T18:23:31.197Z,1.00
2022-08-28T18:25:58.431Z,0.70
2022-08-28T18:28:26.582Z,0.98
2022-08-28T18:30:54.402Z,1.20
2022-08-28T18:33:23.631Z,1.38
2022-08-28T18:35:52.184Z,1.10
2022-08-28T18:38:21.767Z,0.95
2022-08-28T18:40:49.336Z,1.00
2022-08-28T18:43:20.081Z,1.40
2022-08-28T18:45:47.705Z,2.15
2022-08-28T18:48:15.205Z,1.60
2022-08-28T18:50:46.322Z,1.00
2022-08-28T18:53:18.197Z,0.90
2022-08-28T18:55:45.789Z,0.93
2022-08-28T18:58:15.369Z,1.00
2022-08-28T19:00:43.724Z,0.90
2022-08-28T19:03:11.107Z,1.23
2022-08-28T19:05:38.984Z,0.95
2022-08-28T19:08:06.444Z,1.00
2022-08-28T19:10:35.275Z,1.13
2022-08-28T19:13:03.898Z,1.17
2022-08-28T19:15:31.847Z,0.93
2022-08-28T19:18:02.773Z,0.85
2022-08-28T19:20:30.469Z,0.98
2022-08-28T19:22:58.508Z,1.00
2022-08-28T19:25:29.070Z,1.20
2022-08-28T19:27:59.079Z,1.15
2022-08-28T19:30:28.982Z,1.50
2022-08-28T19:32:56.141Z,0.93
2022-08-28T19:35:24.499Z,1.02
2022-08-28T19:37:55.142Z,1.33
2022-08-28T19:40:22.662Z,1.50
2022-08-28T19:42:50.315Z,1.20
2022-08-28T19:45:17.809Z,1.38
2022-08-28T19:47:46.809Z,1.00
2022-08-28T19:50:15.045Z,1.15
2022-08-28T19:52:43.231Z,1.27
2022-08-28T19:55:18.456Z,1.40
2022-08-28T19:57:46.835Z,1.20
2022-08-28T20:00:18.986Z,1.10
2022-08-28T20:02:48.007Z,0.95
2022-08-28T20:05:15.261Z,1.20
2022-08-28T20:07:43.630Z,1.67
2022-08-28T20:10:12.541Z,1.70
2022-08-28T20:12:40.152Z,1.20
2022-08-28T20:15:16.792Z,1.00
2022-08-28T20:17:49.546Z,1.27
2022-08-28T20:20:19.108Z,1.55
2022-08-28T20:22:46.306Z,0.95
2022-08-28T20:25:13.479Z,1.13
2022-08-28T20:27:41.879Z,1.40
2022-08-28T20:30:10.451Z,1.20
2022-08-28T20:32:40.133Z,1.40
2022-08-28T20:35:10.275Z,1.30
2022-08-28T20:37:44.653Z,1.25
2022-08-28T20:40:19.256Z,1.98
2022-08-28T20:42:46.638Z,1.25
2022-08-28T20:45:15.914Z,1.83
2022-08-28T20:47:43.670Z,1.60
2022-08-28T20:50:12.220Z,1.75
2022-08-28T20:52:39.567Z,1.58
2022-08-28T20:55:08.701Z,1.63
2022-08-28T20:57:36.649Z,1.90
2022-08-28T21:00:08.107Z,2.10
2022-08-28T21:02:35.560Z,2.25
2022-08-28T21:05:02.735Z,2.45
2022-08-28T21:07:30.140Z,1.63
2022-08-28T21:10:06.814Z,1.42
2022-08-28T21:12:38.670Z,1.40
2022-08-28T21:15:08.349Z,1.60
2022-08-28T21:17:35.584Z,2.05
2022-08-28T21:20:08.315Z,1.77
2022-08-28T21:22:36.143Z,1.90
2022-08-28T21:25:05.226Z,2.00
2022-08-28T21:27:32.660Z,2.33
2022-08-28T21:30:00.382Z,1.85
2022-08-28T21:32:29.217Z,2.08
2022-08-28T21:34:56.834Z,1.17
2022-08-28T21:37:24.292Z,1.15
2022-08-28T21:39:52.054Z,1.10
2022-08-28T21:42:21.113Z,1.60
2022-08-28T21:44:51.585Z,1.70
2022-08-28T21:47:23.214Z,1.60
2022-08-28T21:49:53.301Z,1.30
2022-08-28T21:52:22.098Z,1.13
2022-08-28T21:54:49.195Z,1.20
2022-08-28T21:57:17.583Z,1.67
2022-08-28T21:59:44.711Z,1.05
2022-08-28T22:02:11.783Z,1.33
2022-08-28T22:04:38.931Z,1.40
2022-08-28T22:07:06.502Z,1.23
2022-08-28T22:09:33.533Z,0.90
2022-08-28T22:12:01.289Z,0.90
2022-08-28T22:14:28.480Z,1.33
2022-08-28T22:16:56.595Z,1.50
2022-08-28T22:19:23.793Z,1.15
2022-08-28T22:22:09.594Z,1.35
2022-08-28T22:24:37.491Z,1.25
2022-08-28T22:27:05.754Z,1.15
2022-08-28T22:29:36.418Z,1.77
2022-08-28T22:32:07.857Z,1.45
2022-08-28T22:34:40.603Z,1.35
2022-08-28T22:39:35.112Z,1.20
2022-08-28T22:42:02.350Z,0.98
2022-08-28T22:44:29.509Z,1.13
2022-08-28T22:46:56.526Z,1.00
2022-08-28T22:49:23.661Z,1.20
2022-08-28T22:51:50.665Z,1.30
2022-08-28T22:54:17.859Z,1.27
2022-08-28T22:56:44.958Z,1.10
2022-08-28T22:59:12.052Z,1.30
2022-08-28T23:01:42.225Z,1.23
2022-08-28T23:04:10.868Z,1.40
2022-08-28T23:06:40.173Z,1.38
2022-08-28T23:09:08.207Z,1.73
2022-08-28T23:11:36.475Z,1.45
2022-08-28T23:14:05.422Z,1.30
2022-08-28T23:16:32.879Z,1.20
2022-08-28T23:19:13.273Z,1.02
2022-08-28T23:21:44.106Z,1.02
2022-08-28T23:24:16.053Z,1.20
2022-08-28T23:26:44.772Z,1.38
2022-08-28T23:29:12.417Z,1.42
2022-08-28T23:31:39.756Z,1.10
2022-08-28T23:34:07.031Z,1.30
2022-08-28T23:36:35.830Z,1.13
2022-08-28T23:39:04.882Z,0.95
2022-08-28T23:41:33.180Z,1.42
2022-08-28T23:44:02.409Z,0.98
2022-08-28T23:46:31.331Z,1.05
2022-08-28T23:48:58.480Z,1.08
2022-08-28T23:51:25.568Z,1.00
2022-08-28T23:53:53.445Z,1.23
2022-08-28T23:56:20.509Z,1.17
2022-08-28T23:58:47.537Z,1.45
